Nearby METAR Reports

 

KMRB - Martinsburg, West Virginia, USA
Distance from station: NNW 9mi, 14km
Updated: 09/25/2017 8:53am
Few Clouds
Few Clouds
 Wind from calm
Wind: Calm
Temperature: 70°F , 21°C
Dew Point: 64°F , 18°C
Humidity: 83%
Barometer: 30.09 inHg , 1019 hPa
Clouds: Few Clouds
Visibility: 8 miles , 13 km
Cloud details: Few Clouds 400 ft
2017/09/25 12:53 KMRB 251253Z 00000KT 8SM FEW004 21/18 A3009 RMK AO2 SLP186 T02060178
KOKV - Winchester Rgnl, Virginia, USA
Distance from station: SW 17mi, 28km
Updated: 09/25/2017 8:55am
Clear
Clear
 Wind from calm
Wind: Calm
Temperature: 68°F , 20°C
Dew Point: 63°F , 17°C
Humidity: 83%
Barometer: 30.10 inHg , 1019.3 hPa
Clouds: Clear
Visibility: 10 miles , 16 km
2017/09/25 12:55 KOKV 251255Z AUTO 00000KT 10SM CLR 20/17 A3010 RMK AO2
 
KJYO - Leesburg/Godfrey, Virginia, USA
Distance from station: SE 23mi, 38km
Updated: 09/25/2017 8:55am
Clear
Clear
 Wind from calm
Wind: Calm
Temperature: 73°F , 23°C
Dew Point: 70°F , 21°C
Humidity: 89%
Barometer: 30.09 inHg , 1019 hPa
Clouds: Clear
Visibility: 10 miles , 16 km
2017/09/25 12:55 KJYO 251255Z AUTO 00000KT 10SM CLR 23/21 A3009 RMK AO2
KFDK - Frederick, Maryland, USA
Distance from station: ENE 30mi, 48km
Updated: 09/25/2017 8:47am
Clear
Clear
 Wind from calm
Wind: Calm
Temperature: 70°F , 21°C
Dew Point: 70°F , 21°C
Humidity: 100%
Barometer: 30.11 inHg , 1019.6 hPa
Clouds: Clear
Visibility: 5 miles , 8 km
2017/09/25 12:47 KFDK 251247Z 00000KT 5SM SKC 21/21 A3011
 
KHGR - Hagerstown, Maryland, USA
Distance from station: NNE 30mi, 48km
Updated: 09/25/2017 8:53am
Clear
Clear
 Wind from calm
Wind: Calm
Temperature: 72°F , 22°C
Dew Point: 66°F , 19°C
Humidity: 83%
Barometer: 30.10 inHg , 1019.3 hPa
Clouds: Clear
Visibility: 7 miles , 11 km
2017/09/25 12:53 KHGR 251253Z 00000KT 7SM CLR 22/19 A3010 RMK AO2 SLP195 MIFG EAST T02170189
KIAD - Wash Dc/Dulles, Virginia, USA
Distance from station: SE 34mi, 55km
Updated: 09/25/2017 8:52am
Few Clouds
Few Clouds
 Wind from calm
Wind: Calm
Temperature: 73°F , 23°C
Dew Point: 70°F , 21°C
Humidity: 89%
Barometer: 30.07 inHg , 1018.3 hPa
Clouds: Few Clouds
Visibility: 9 miles , 14 km
Cloud details: Few Clouds 25000 ft
2017/09/25 12:52 KIAD 251252Z 00000KT 9SM FEW250 23/21 A3007 RMK AO2 SLP181 T02280206
 
KRSP - Nsf Thurmont, Maryland, USA
Distance from station: NE 34mi, 55km
Updated: 09/25/2017 8:54am
Clear
Clear
 Wind from ENE
Wind: ENE 5 mph , 7 km/h
Temperature: 73°F , 23°C
Dew Point: 66°F , 19°C
Humidity: 78%
Barometer: 30.14 inHg , 1020.7 hPa
Clouds: Clear
Visibility: 10 miles , 16 km
2017/09/25 12:54 KRSP 251254Z AUTO 07004KT 10SM CLR 23/19 A3014 RMK AO2 SLP200 T02280189 $
KGAI - Gaithersburg, Maryland, USA
Distance from station: E 40mi, 64km
Updated: 09/25/2017 8:56am
Clear
Clear
 Wind from calm
Wind: Calm
Temperature: 73°F , 23°C
Dew Point: 68°F , 20°C
Humidity: 83%
Barometer: 30.09 inHg , 1019 hPa
Clouds: Clear
Visibility: 10 miles , 16 km
2017/09/25 12:56 KGAI 251256Z AUTO 00000KT 10SM CLR 23/20 A3009 RMK AO2 SLP213 T02330200
 
KRYT - Fountain Dale, Pennsylvania, USA
Distance from station: NE 40mi, 64km
Updated: 09/25/2017 7:53am
NOT Current
Clear
Clear
 Wind from calm
Wind: Calm
Temperature: 70°F , 21°C
Dew Point: 68°F , 20°C
Humidity: 94%
Barometer: 30.09 inHg , 1019 hPa
Clouds: Clear
Visibility: 8 miles , 13 km
2017/09/25 11:53 KRYT 251153Z AUTO 00000KT 8SM CLR 21/20 A3009 RMK AO2 SLP179 60001 70001 T02060200 10206 20183 53010 TSNO $
KHEF - Manassas Muni, Virginia, USA
Distance from station: SSE 44mi, 72km
Updated: 09/25/2017 8:56am
Clear
Clear
 Wind from calm
Wind: Calm
Temperature: 68°F , 20°C
Dew Point: 64°F , 18°C
Humidity: 88%
Barometer: 30.08 inHg , 1018.6 hPa
Clouds: Clear
Visibility: 10 miles , 16 km
2017/09/25 12:56 KHEF 251256Z AUTO 00000KT 10SM CLR 20/18 A3008 RMK AO2 SLP194 T02000183 PNO $
 
KHWY - Warrenton, Virginia, USA
Distance from station: SSE 50mi, 80km
Updated: 09/25/2017 8:55am
Clear
Clear
 Wind from calm
Wind: Calm
Temperature: 70°F , 21°C
Dew Point: 64°F , 18°C
Humidity: 83%
Barometer: 30.08 inHg , 1018.6 hPa
Clouds: Clear
Visibility: 10 miles , 16 km
2017/09/25 12:55 KHWY 251255Z AUTO 00000KT 10SM CLR 21/18 A3008 RMK AO2 T02110177